Time;durP1;ratioP1;P1;durP2;ratioP2;P2;SDS_P1;SDS_P2;PMS_P1;PMS_P2;Temp;Humidity;BMP_temperature;BMP_pressure;BME280_temperature;BME280_humidity;BME280_pressure;Samples;Min_cycle;Max_cycle;Signal;HPM_P1;HPM_P2
2021/03/25 00:01:54;;;;;;;8.03;4.35;;;;;;;0.06;46.74;97445.09;1799836;78;21134;-80
2021/03/25 00:04:23;;;;;;;7.15;4.20;;;;;;;0.07;46.59;97454.56;1823073;78;21707;-80
2021/03/25 00:06:58;;;;;;;11.10;5.17;;;;;;;0.08;46.60;97445.03;1819567;77;21107;-82
2021/03/25 00:09:33;;;;;;;9.33;4.53;;;;;;;0.10;46.65;97444.55;1832887;77;21183;-78
2021/03/25 00:12:01;;;;;;;9.10;4.53;;;;;;;0.10;46.66;97449.27;1833566;77;21163;-80
2021/03/25 00:14:29;;;;;;;10.90;4.95;;;;;;;0.10;46.62;97451.02;1831961;77;21282;-80
2021/03/25 00:16:57;;;;;;;9.23;4.90;;;;;;;0.09;46.53;97455.80;1854975;77;21277;-79
2021/03/25 00:19:25;;;;;;;7.75;4.10;;;;;;;0.06;46.66;97461.08;1864916;77;21171;-79
2021/03/25 00:21:52;;;;;;;8.18;5.10;;;;;;;0.03;46.50;97458.14;1854652;77;21222;-80
2021/03/25 00:24:21;;;;;;;11.18;5.60;;;;;;;0.01;46.53;97461.69;1866905;77;21147;-79
2021/03/25 00:26:49;;;;;;;12.45;4.95;;;;;;;-0.03;46.58;97454.00;1866464;77;21596;-78
2021/03/25 00:29:17;;;;;;;10.90;4.53;;;;;;;-0.07;46.67;97452.85;1839986;77;21249;-80
2021/03/25 00:31:45;;;;;;;9.37;4.70;;;;;;;-0.11;46.70;97455.99;1861274;77;21170;-77
2021/03/25 00:34:14;;;;;;;14.63;3.98;;;;;;;-0.13;46.66;97457.78;1862799;77;21143;-78
2021/03/25 00:36:41;;;;;;;10.05;4.40;;;;;;;-0.14;46.73;97461.30;1827615;77;21162;-80
2021/03/25 00:39:12;;;;;;;9.80;4.73;;;;;;;-0.16;46.72;97468.26;1850028;77;21217;-78
2021/03/25 00:41:42;;;;;;;7.73;3.53;;;;;;;-0.18;46.91;97469.58;1827921;78;21150;-76
2021/03/25 00:44:12;;;;;;;6.23;3.30;;;;;;;-0.21;46.65;97464.52;1825360;78;21320;-77
2021/03/25 00:46:42;;;;;;;7.73;4.17;;;;;;;-0.26;46.72;97463.80;1814628;78;21141;-79
2021/03/25 00:49:10;;;;;;;7.30;3.47;;;;;;;-0.27;47.05;97459.96;1829696;78;21262;-79
2021/03/25 00:51:38;;;;;;;7.57;3.27;;;;;;;-0.27;46.91;97465.14;1816338;78;21246;-79
2021/03/25 00:54:06;;;;;;;13.13;4.47;;;;;;;-0.27;46.81;97469.03;1827693;78;21277;-79
2021/03/25 00:56:34;;;;;;;6.93;3.83;;;;;;;-0.30;46.97;97465.23;1811851;78;21139;-77
2021/03/25 00:59:02;;;;;;;7.33;3.33;;;;;;;-0.30;46.87;97469.98;1826792;78;21154;-79
2021/03/25 01:01:30;;;;;;;7.40;4.07;;;;;;;-0.35;47.03;97468.83;1831929;78;21178;-78
2021/03/25 01:03:58;;;;;;;8.97;4.37;;;;;;;-0.37;46.91;97477.55;1827634;78;21138;-79
2021/03/25 01:06:26;;;;;;;8.40;4.12;;;;;;;-0.39;46.97;97470.26;1837143;77;21269;-79
2021/03/25 01:08:54;;;;;;;11.73;4.53;;;;;;;-0.40;46.99;97473.74;1827863;77;21134;-79
2021/03/25 01:11:27;;;;;;;8.83;4.50;;;;;;;-0.40;47.00;97474.58;1828975;78;21281;-77
2021/03/25 01:14:00;;;;;;;7.35;4.30;;;;;;;-0.40;47.17;97471.98;1793046;80;21804;-80
2021/03/25 01:16:32;;;;;;;5.70;3.37;;;;;;;-0.40;46.96;97468.56;1759121;81;21309;-78
2021/03/25 01:19:04;;;;;;;9.70;4.17;;;;;;;-0.42;47.01;97477.69;1763704;79;21197;-78
2021/03/25 01:21:34;;;;;;;7.80;4.13;;;;;;;-0.46;47.03;97473.48;1779484;78;21118;-79
2021/03/25 01:24:01;;;;;;;6.23;4.00;;;;;;;-0.49;46.99;97470.53;1784596;80;21151;-81
2021/03/25 01:26:29;;;;;;;6.97;3.53;;;;;;;-0.52;46.90;97466.73;1757825;81;21276;-79
2021/03/25 01:29:00;;;;;;;7.65;3.47;;;;;;;-0.53;46.93;97467.62;1758642;81;21316;-79
2021/03/25 01:31:32;;;;;;;8.93;3.87;;;;;;;-0.53;47.03;97468.92;1772616;80;21158;-81
2021/03/25 01:34:03;;;;;;;7.77;3.17;;;;;;;-0.90;46.98;97409.16;1774290;80;21296;-77
2021/03/25 01:36:32;;;;;;;5.60;3.63;;;;;;;-0.57;46.98;97469.05;1794045;79;21692;-79
2021/03/25 01:38:59;;;;;;;7.73;3.70;;;;;;;-0.61;46.92;97469.59;1772980;79;21169;-78
2021/03/25 01:41:32;;;;;;;9.73;3.70;;;;;;;-0.63;47.00;97467.48;1778846;80;21281;-79
2021/03/25 01:44:02;;;;;;;6.00;2.63;;;;;;;-0.64;47.00;97475.72;1782654;79;21266;-80
2021/03/25 01:46:37;;;;;;;6.83;3.20;;;;;;;-0.66;47.10;97476.20;1791007;79;21166;-80
2021/03/25 01:49:12;;;;;;;5.47;3.20;;;;;;;-0.69;47.14;97471.56;1793353;79;21286;-78
2021/03/25 01:52:19;;;;;;;10.53;3.50;;;;;;;-0.70;47.08;97464.25;1780759;79;21277;-80
2021/03/25 01:55:14;;;;;;;8.03;3.73;;;;;;;-0.71;47.26;97465.14;1794599;79;21655;-78
2021/03/25 01:58:25;;;;;;;7.00;3.50;;;;;;;-0.70;47.30;97463.39;1771812;80;21141;-78
2021/03/25 02:01:04;;;;;;;7.50;3.27;;;;;;;-0.73;47.28;97470.81;1775159;80;21564;-81
2021/03/25 02:04:19;;;;;;;6.07;3.30;;;;;;;-0.75;47.38;97463.52;1774053;80;21171;-80
2021/03/25 02:06:56;;;;;;;5.43;2.93;;;;;;;-0.74;47.34;97466.98;1768954;79;21295;-79
2021/03/25 02:09:38;;;;;;;7.20;3.20;;;;;;;-0.80;47.28;97461.53;1761426;79;21710;-80
2021/03/25 02:12:39;;;;;;;10.43;5.03;;;;;;;-0.84;47.47;97458.19;1768525;79;21296;-80
2021/03/25 02:15:21;;;;;;;6.97;3.17;;;;;;;-0.82;47.57;97456.37;1764748;79;21167;-79
2021/03/25 02:18:00;;;;;;;7.00;3.40;;;;;;;-0.82;47.67;97458.96;1752899;81;21263;-80
2021/03/25 02:21:35;;;;;;;7.72;3.75;;;;;;;-0.73;47.54;97460.88;1827425;77;24237;-80
2021/03/25 02:24:52;;;;;;;7.33;3.30;;;;;;;-0.79;47.64;97459.34;1730617;83;21157;-80
2021/03/25 02:28:12;;;;;;;6.85;3.62;;;;;;;-0.72;48.02;97463.45;1805623;79;24389;-81
2021/03/25 02:31:00;;;;;;;6.93;3.20;;;;;;;-0.76;47.70;97462.28;1759259;81;21160;-78
2021/03/25 02:33:30;;;;;;;7.10;3.40;;;;;;;-0.80;48.09;97462.82;1762669;81;21260;-78
2021/03/25 02:36:05;;;;;;;7.93;3.23;;;;;;;-0.80;47.71;97458.48;1761147;81;21184;-79
2021/03/25 02:38:50;;;;;;;7.17;3.40;;;;;;;-0.81;47.66;97457.23;1763766;81;21278;-78
2021/03/25 02:41:41;;;;;;;9.77;3.57;;;;;;;-0.83;47.94;97459.02;1761597;81;21822;-79
2021/03/25 02:44:29;;;;;;;7.00;3.40;;;;;;;-0.86;47.87;97457.80;1764349;81;21258;-79
2021/03/25 02:47:04;;;;;;;5.97;2.60;;;;;;;-0.87;47.75;97447.04;1760084;81;21261;-79
2021/03/25 02:49:40;;;;;;;7.05;2.92;;;;;;;-0.89;47.63;97439.79;1764918;81;21257;-79
2021/03/25 02:52:23;;;;;;;8.53;2.50;;;;;;;-0.90;47.68;97445.86;1765011;81;21257;-78
2021/03/25 02:54:53;;;;;;;6.53;3.17;;;;;;;-0.92;47.84;97443.29;1763392;81;21297;-77
2021/03/25 02:57:59;;;;;;;6.10;2.83;;;;;;;-0.97;47.67;97438.24;1761395;81;21139;-79
2021/03/25 03:00:42;;;;;;;6.58;3.00;;;;;;;-0.98;47.67;97431.41;1760088;81;21148;-81
2021/03/25 03:03:20;;;;;;;5.70;3.27;;;;;;;-0.97;47.70;97426.59;1717688;81;21142;-79
2021/03/25 03:06:07;;;;;;;8.40;3.23;;;;;;;-0.97;47.74;97420.59;1753070;81;21279;-79
2021/03/25 03:08:41;;;;;;;6.80;3.10;;;;;;;-0.97;47.73;97420.13;1764771;81;21191;-78
2021/03/25 03:11:35;;;;;;;17.00;4.60;;;;;;;-1.00;47.72;97420.23;1762164;81;21294;-80
2021/03/25 03:14:14;;;;;;;6.33;3.47;;;;;;;-1.01;47.79;97422.42;1763063;81;21123;-78
2021/03/25 03:16:51;;;;;;;8.27;3.47;;;;;;;-1.05;47.81;97418.21;1762994;81;21309;-79
2021/03/25 03:19:34;;;;;;;9.33;3.70;;;;;;;-1.08;47.80;97414.44;1761204;81;21733;-77
2021/03/25 03:22:07;;;;;;;7.17;3.17;;;;;;;-1.09;48.10;97410.16;1739074;81;21253;-79
2021/03/25 03:24:54;;;;;;;9.83;3.17;;;;;;;-1.05;48.00;97398.80;1758759;81;21286;-81
2021/03/25 03:27:52;;;;;;;7.00;2.83;;;;;;;-1.00;48.07;97404.71;1826122;77;24752;-78
2021/03/25 03:30:32;;;;;;;7.93;3.23;;;;;;;-1.06;48.13;97406.62;1814266;78;21281;-79
2021/03/25 03:33:31;;;;;;;7.70;3.63;;;;;;;-1.09;48.07;97397.22;1798553;78;21100;-77
2021/03/25 03:36:12;;;;;;;6.40;3.13;;;;;;;-1.17;48.22;97393.54;1801247;80;21321;-79
2021/03/25 03:39:10;;;;;;;7.80;3.47;;;;;;;-1.21;48.33;97384.61;1800166;78;21509;-79
2021/03/25 03:41:55;;;;;;;6.87;3.17;;;;;;;-1.21;48.48;97384.19;1798080;78;21293;-78
2021/03/25 03:44:30;;;;;;;11.90;3.40;;;;;;;-1.22;48.54;97388.09;1820386;78;21729;-79
2021/03/25 03:46:58;;;;;;;7.40;3.13;;;;;;;-1.26;48.47;97393.38;1798527;80;21121;-78
2021/03/25 03:49:44;;;;;;;4.50;2.57;;;;;;;-1.24;48.52;97397.62;1767846;80;21279;-82
2021/03/25 03:52:30;;;;;;;10.10;3.30;;;;;;;-1.23;48.38;97396.73;1759301;81;21175;-79
2021/03/25 03:55:01;;;;;;;5.33;2.90;;;;;;;-1.26;48.46;97395.96;1743577;81;21282;-80
2021/03/25 03:58:12;;;;;;;6.00;3.23;;;;;;;-1.27;48.47;97411.08;1737178;82;21296;-79
2021/03/25 04:01:09;;;;;;;4.40;1.90;;;;;;;-1.28;48.59;97415.84;1745624;81;21159;-78
2021/03/25 04:03:46;;;;;;;;;;;;;;;-1.34;48.29;97413.41;1758366;81;21269;-81
2021/03/25 04:06:30;;;;;;;5.60;2.70;;;;;;;-1.40;48.75;97404.53;1749056;81;20262;-78
2021/03/25 04:09:14;;;;;;;4.57;2.80;;;;;;;-1.43;48.54;97408.48;1740811;81;21297;-78
2021/03/25 04:12:12;;;;;;;6.30;3.27;;;;;;;-1.37;48.48;97417.38;1816958;78;24690;-77
2021/03/25 04:14:52;;;;;;;6.47;3.00;;;;;;;-1.44;48.48;97418.45;1806169;78;21704;-80
2021/03/25 04:17:29;;;;;;;5.33;2.97;;;;;;;-1.46;48.66;97418.93;1816360;78;21327;-77
2021/03/25 04:20:07;;;;;;;7.90;2.87;;;;;;;-1.44;48.83;97418.45;1817033;78;21142;-78
2021/03/25 04:22:44;;;;;;;6.43;3.30;;;;;;;-1.44;48.79;97423.16;1829012;78;21169;-80
2021/03/25 04:25:25;;;;;;;6.20;2.63;;;;;;;-1.44;49.12;97419.74;1829312;78;21262;-79
2021/03/25 04:28:02;;;;;;;5.40;2.70;;;;;;;-1.40;48.82;97424.38;1800609;77;21138;-79
2021/03/25 04:30:34;;;;;;;7.42;2.50;;;;;;;-1.37;48.68;97427.73;1806260;78;21151;-79
2021/03/25 04:33:04;;;;;;;7.77;2.93;;;;;;;-1.37;48.89;97422.98;1792119;80;21250;-77
2021/03/25 04:35:33;;;;;;;5.77;2.53;;;;;;;-1.33;48.75;97429.33;1743550;81;21256;-78
2021/03/25 04:38:03;;;;;;;4.50;2.20;;;;;;;-1.31;48.87;97425.42;1743682;82;21162;-79
2021/03/25 04:40:34;;;;;;;8.53;2.80;;;;;;;-1.29;48.80;97432.67;1719509;81;21309;-79
2021/03/25 04:43:03;;;;;;;5.77;3.00;;;;;;;-1.23;48.82;97440.72;1713937;83;21306;-80
2021/03/25 04:46:02;;;;;;;10.27;2.60;;;;;;;-1.20;48.89;97440.19;1737003;83;21189;-78
2021/03/25 04:48:35;;;;;;;5.63;3.17;;;;;;;-1.17;48.95;97445.74;1736312;81;21271;-80
2021/03/25 04:51:15;;;;;;;4.53;2.43;;;;;;;-1.08;48.86;97449.80;1737389;83;21161;-80
2021/03/25 04:53:44;;;;;;;7.80;3.65;;;;;;;-1.05;48.83;97448.42;1714476;83;21291;-79
2021/03/25 04:56:16;;;;;;;10.30;3.53;;;;;;;-0.97;48.74;97452.48;1737734;82;21172;-77
2021/03/25 04:58:56;;;;;;;7.57;3.73;;;;;;;-0.87;48.58;97456.10;1704728;83;21258;-81
2021/03/25 05:01:27;;;;;;;7.80;3.00;;;;;;;-0.85;48.41;97456.91;1700827;83;21255;-81
2021/03/25 05:03:59;;;;;;;16.47;3.77;;;;;;;-0.81;48.39;97460.66;1701153;83;21310;-79
2021/03/25 05:06:53;;;;;;;8.27;3.07;;;;;;;-0.74;48.33;97449.69;1728238;83;21149;-78
2021/03/25 05:09:36;;;;;;;7.15;2.75;;;;;;;-0.60;48.18;97454.92;1854187;77;24455;-81
2021/03/25 05:12:05;;;;;;;8.47;2.50;;;;;;;-0.62;48.12;97458.00;1830599;78;21332;-78
2021/03/25 05:14:33;;;;;;;4.07;2.30;;;;;;;-0.57;48.04;97459.56;1830438;78;21283;-79
2021/03/25 05:17:27;;;;;;;12.07;3.17;;;;;;;-0.53;47.88;97460.31;1840679;77;21135;-79
2021/03/25 05:20:06;;;;;;;4.70;2.53;;;;;;;-0.51;47.73;97455.94;1841698;77;21267;-79
2021/03/25 05:22:42;;;;;;;6.23;2.97;;;;;;;-0.44;47.66;97463.92;1830574;78;21128;-81
2021/03/25 05:25:30;;;;;;;5.58;3.17;;;;;;;-0.37;47.68;97468.48;1750797;82;21654;-81
2021/03/25 05:28:17;;;;;;;8.17;3.67;;;;;;;-0.27;47.68;97472.91;1722270;82;21181;-79
2021/03/25 05:30:47;;;;;;;8.17;3.00;;;;;;;-0.16;47.91;97478.63;1656767;84;21165;-79
2021/03/25 05:33:19;;;;;;;11.83;2.57;;;;;;;-0.06;48.08;97470.09;1713503;83;21159;-80
2021/03/25 05:36:02;;;;;;;13.43;4.67;;;;;;;-0.01;47.82;97465.17;1713841;83;21174;-78
2021/03/25 05:38:31;;;;;;;11.90;2.90;;;;;;;0.11;47.46;97463.09;1713490;84;21178;-79
2021/03/25 05:41:26;;;;;;;8.40;3.58;;;;;;;0.29;47.02;97468.11;1719625;83;21163;-79
2021/03/25 05:44:48;;;;;;;7.57;3.00;;;;;;;0.47;46.77;97471.84;1730072;83;21738;-79
2021/03/25 05:47:51;;;;;;;10.23;5.00;;;;;;;0.74;46.66;97476.53;1715783;83;21142;-86
2021/03/25 05:50:37;;;;;;;8.58;3.47;;;;;;;1.08;46.25;97478.39;1775128;80;21153;-80
2021/03/25 05:53:13;;;;;;;9.53;4.37;;;;;;;1.48;46.30;97480.83;1796945;80;21106;-78
2021/03/25 05:55:56;;;;;;;10.60;4.10;;;;;;;1.88;45.18;97484.95;1797558;80;21558;-81
2021/03/25 05:58:41;;;;;;;11.40;4.97;;;;;;;2.37;45.03;97489.11;1798481;78;21265;-81
2021/03/25 06:01:44;;;;;;;13.88;4.62;;;;;;;2.86;44.79;97488.80;1830578;78;21270;-87
2021/03/25 06:04:20;;;;;;;16.12;4.08;;;;;;;3.24;44.58;97484.98;1830234;78;21711;-80
2021/03/25 06:07:16;;;;;;;14.05;4.25;;;;;;;3.57;44.04;97473.50;1829249;78;21128;-83
2021/03/25 06:09:55;;;;;;;9.63;3.25;;;;;;;3.79;42.67;97480.33;1770502;78;21311;-84
2021/03/25 06:13:08;;;;;;;11.93;4.20;;;;;;;4.06;43.14;97476.03;1804249;78;21127;-82
2021/03/25 06:16:07;;;;;;;6.75;3.58;;;;;;;4.34;42.23;97482.05;1781712;80;21176;-80
2021/03/25 06:19:31;;;;;;;9.08;4.53;;;;;;;4.71;41.66;97487.67;1796381;80;21558;-82
2021/03/25 06:22:06;;;;;;;10.78;4.85;;;;;;;4.89;41.53;97482.81;1774249;78;21131;-81
2021/03/25 06:25:01;;;;;;;14.30;4.70;;;;;;;5.22;41.15;97487.23;1785126;80;21164;-82
2021/03/25 06:28:12;;;;;;;11.53;5.15;;;;;;;5.43;40.65;97485.25;1794852;78;21313;-80
2021/03/25 06:30:45;;;;;;;12.78;5.50;;;;;;;5.68;38.30;97485.70;1826781;78;21589;-83
2021/03/25 06:33:21;;;;;;;11.55;5.50;;;;;;;5.94;38.21;97486.88;1823784;78;21132;-84
2021/03/25 06:35:59;;;;;;;14.28;5.37;;;;;;;6.43;38.34;97488.56;1818305;78;21084;-84
2021/03/25 06:38:50;;;;;;;9.63;5.60;;;;;;;6.84;38.74;97486.61;1785308;80;21120;-81
2021/03/25 06:41:26;;;;;;;14.07;6.15;;;;;;;7.19;36.49;97488.91;1819199;78;21128;-82
2021/03/25 06:44:02;;;;;;;10.23;5.58;;;;;;;7.61;36.85;97484.23;1785657;80;21144;-80
2021/03/25 06:46:44;;;;;;;14.93;6.62;;;;;;;8.31;36.37;97497.75;1784989;80;21120;-84
2021/03/25 06:49:34;;;;;;;13.03;6.10;;;;;;;8.68;34.08;97491.42;1784602;80;21147;-83
2021/03/25 06:52:16;;;;;;;13.65;6.53;;;;;;;8.68;34.08;97491.42;1803882;78;21127;-78
2021/03/25 06:54:43;;;;;;;14.15;7.03;;;;;;;8.89;34.75;97485.23;1827272;78;21100;-81
2021/03/25 06:57:16;;;;;;;16.17;6.80;;;;;;;9.20;34.18;97496.77;1827412;78;21104;-82
2021/03/25 06:59:46;;;;;;;13.15;7.17;;;;;;;9.26;34.44;97501.59;1816855;78;21127;-81
2021/03/25 07:02:33;;;;;;;10.60;6.30;;;;;;;9.30;32.55;97500.45;1789344;78;21254;-79
2021/03/25 07:05:04;;;;;;;12.35;6.15;;;;;;;9.49;32.68;97505.27;1784900;80;21120;-80
2021/03/25 07:07:35;;;;;;;17.12;5.40;;;;;;;9.68;32.19;97504.84;1787637;78;21163;-80
2021/03/25 07:10:06;;;;;;;11.97;5.08;;;;;;;9.91;31.36;97508.13;1784626;80;21573;-82
2021/03/25 07:12:38;;;;;;;11.18;4.80;;;;;;;10.13;32.12;97511.38;1796864;78;21526;-80
2021/03/25 07:15:10;;;;;;;11.97;5.08;;;;;;;10.30;31.67;97509.67;1825079;78;21119;-79
2021/03/25 07:17:43;;;;;;;9.73;5.10;;;;;;;10.41;31.19;97503.64;1782539;78;21104;-80
2021/03/25 07:20:20;;;;;;;11.55;5.20;;;;;;;10.48;32.10;97509.80;1784514;80;21582;-78
2021/03/25 07:23:12;;;;;;;8.45;5.67;;;;;;;10.72;31.51;97504.48;1815821;77;24516;-79
2021/03/25 07:25:47;;;;;;;12.50;5.85;;;;;;;10.64;31.03;97489.26;1799842;79;21185;-79
2021/03/25 07:28:24;;;;;;;10.90;5.30;;;;;;;10.87;30.60;97506.00;1727313;81;21143;-78
2021/03/25 07:30:58;;;;;;;15.25;5.60;;;;;;;10.99;30.14;97504.23;1723617;83;21629;-76
2021/03/25 07:33:29;;;;;;;15.32;5.67;;;;;;;11.12;30.49;97502.81;1738636;82;21631;-82
2021/03/25 07:36:10;;;;;;;11.80;5.60;;;;;;;11.27;29.25;97503.44;1717949;82;21203;-79
2021/03/25 07:38:40;;;;;;;7.35;4.22;;;;;;;11.48;29.37;97499.63;1709667;84;21186;-77
2021/03/25 07:41:25;;;;;;;8.58;4.55;;;;;;;11.61;29.76;97497.36;1709124;84;21273;-78
2021/03/25 07:44:06;;;;;;;11.77;5.13;;;;;;;11.64;29.31;97499.27;1709695;84;21167;-79
2021/03/25 07:46:48;;;;;;;10.55;5.10;;;;;;;11.82;28.81;97496.14;1708962;84;21206;-82
2021/03/25 07:49:37;;;;;;;10.68;4.97;;;;;;;12.03;29.01;97494.48;1736107;82;21183;-79
2021/03/25 07:52:10;;;;;;;14.80;6.37;;;;;;;12.12;28.22;97494.20;1736262;82;21158;-79
2021/03/25 07:54:41;;;;;;;18.45;4.70;;;;;;;12.30;28.98;97489.71;1710781;82;21600;-80
2021/03/25 07:57:14;;;;;;;7.90;4.12;;;;;;;12.31;29.10;97486.11;1709537;84;21147;-81
2021/03/25 07:59:51;;;;;;;11.00;4.92;;;;;;;12.29;27.42;97495.99;1711578;82;21147;-83
2021/03/25 08:02:35;;;;;;;9.98;4.28;;;;;;;12.07;28.55;97500.81;1736770;82;21215;-81
2021/03/25 08:05:24;;;;;;;7.03;3.10;;;;;;;12.08;28.40;97495.89;1721867;82;21639;-82
2021/03/25 08:07:55;;;;;;;7.87;3.30;;;;;;;12.06;26.71;97499.98;1731656;82;21175;-81
2021/03/25 08:10:40;;;;;;;7.03;2.92;;;;;;;12.06;27.71;97484.63;1738381;82;21147;-79
2021/03/25 08:13:24;;;;;;;9.00;3.02;;;;;;;12.12;26.86;97491.56;1706442;84;21159;-79
2021/03/25 08:16:08;;;;;;;11.33;3.60;;;;;;;11.96;26.85;97496.37;1722904;82;21119;-80
2021/03/25 08:19:17;;;;;;;7.72;3.30;;;;;;;11.91;26.90;97489.30;1742815;82;21135;-80
2021/03/25 08:22:24;;;;;;;7.50;2.92;;;;;;;11.83;26.58;97486.77;1710451;83;21167;-79
2021/03/25 08:25:17;;;;;;;6.10;3.17;;;;;;;11.74;26.20;97482.70;1755134;82;21163;-83
2021/03/25 08:28:05;;;;;;;5.92;3.55;;;;;;;11.58;26.05;97475.14;1756147;80;21151;-78
2021/03/25 08:31:04;;;;;;;6.28;3.00;;;;;;;11.64;26.06;97476.83;1755456;81;21152;-82
2021/03/25 08:34:07;;;;;;;5.30;2.85;;;;;;;11.45;26.64;97469.98;1758276;80;21139;-82
2021/03/25 08:37:07;;;;;;;8.13;3.83;;;;;;;11.39;26.86;97467.34;1754559;82;21198;-81
2021/03/25 08:39:55;;;;;;;7.75;3.22;;;;;;;11.31;26.63;97467.09;1757617;80;21183;-85
2021/03/25 08:42:43;;;;;;;8.60;2.90;;;;;;;11.12;25.32;97464.56;1757293;81;21128;-79
2021/03/25 09:18:36;;;;;;;8.73;2.65;;;;;;;8.60;25.87;97454.30;1684013;83;21168;-83
2021/03/25 09:31:12;;;;;;;5.03;2.58;;;;;;;8.48;26.87;97439.37;1498981;95;21316;-84
2021/03/25 09:35:34;;;;;;;5.72;2.22;;;;;;;8.20;25.37;97447.23;1445191;96;21253;-84
2021/03/25 10:05:32;;;;;;;7.35;2.30;;;;;;;7.58;27.37;97421.45;1544717;92;21216;-89
2021/03/25 10:08:53;;;;;;;4.80;2.77;;;;;;;7.61;27.11;97414.70;1423957;98;21338;-88
2021/03/25 10:35:59;;;;;;;7.83;2.65;;;;;;;7.77;27.26;97397.52;1524274;91;21255;-85
2021/03/25 11:26:12;;;;;;;5.83;2.95;;;;;;;8.70;28.11;97366.02;1575748;89;21190;-87
2021/03/25 11:30:08;;;;;;;5.67;2.70;;;;;;;8.72;26.28;97362.83;1530240;90;21331;-85
2021/03/25 11:34:05;;;;;;;7.50;2.95;;;;;;;8.80;27.49;97360.99;1508707;93;21259;-86
2021/03/25 12:10:21;;;;;;;4.72;2.70;;;;;;;9.72;23.06;97294.88;1739421;80;22418;-90
2021/03/25 12:13:07;;;;;;;5.12;3.00;;;;;;;9.64;23.29;97324.39;1743362;82;21278;-88
2021/03/25 12:15:54;;;;;;;6.72;3.27;;;;;;;9.61;24.20;97321.14;1726275;81;21284;-89
2021/03/25 12:18:43;;;;;;;7.42;2.70;;;;;;;9.51;24.43;97317.86;1706170;82;21180;-87
2021/03/25 12:21:23;;;;;;;5.45;3.15;;;;;;;9.62;24.68;97319.70;1707090;84;21291;-89
2021/03/25 12:23:58;;;;;;;6.75;4.15;;;;;;;9.70;25.03;97319.16;1705653;84;21180;-89
2021/03/25 12:27:56;;;;;;;6.78;3.20;;;;;;;9.75;24.05;97320.96;1695507;82;21294;-89
2021/03/25 12:30:45;;;;;;;6.72;3.25;;;;;;;9.75;24.72;97322.77;1686517;82;21152;-88
2021/03/25 12:33:44;;;;;;;4.90;3.10;;;;;;;9.71;24.64;97319.98;1569097;89;21275;-91
2021/03/25 12:37:15;;;;;;;7.97;4.08;;;;;;;9.78;24.81;97312.84;1589817;88;21128;-88
2021/03/25 12:39:53;;;;;;;10.08;3.83;;;;;;;9.68;21.81;97307.89;1607462;89;21261;-88
2021/03/25 12:46:38;;;;;;;5.78;3.50;;;;;;;9.74;24.34;97313.19;1604842;89;21191;-88
2021/03/25 12:49:55;;;;;;;4.65;2.83;;;;;;;9.51;23.09;97311.28;1612066;89;22000;-88
2021/03/25 12:56:48;;;;;;;8.10;3.37;;;;;;;9.51;24.29;97309.97;1618499;87;21631;-89
2021/03/25 13:00:01;;;;;;;15.43;4.10;;;;;;;9.69;23.99;97313.06;1747181;82;21263;-89
2021/03/25 13:02:44;;;;;;;7.40;4.25;;;;;;;9.69;24.12;97311.75;1739953;80;21303;-88
2021/03/25 13:05:51;;;;;;;7.90;3.70;;;;;;;9.65;23.55;97311.59;1746779;80;21156;-89
2021/03/25 13:09:14;;;;;;;7.30;4.10;;;;;;;9.71;23.37;97310.77;1738899;82;21283;-88
2021/03/25 13:11:52;;;;;;;7.37;4.03;;;;;;;9.63;21.55;97316.13;1683688;83;21583;-89
2021/03/25 13:14:46;;;;;;;8.75;4.37;;;;;;;9.60;22.92;97312.88;1743554;80;21365;-88
2021/03/25 13:17:34;;;;;;;7.53;3.90;;;;;;;9.58;23.64;97304.25;1743689;80;21319;-88
2021/03/25 13:20:44;;;;;;;7.72;4.10;;;;;;;9.58;22.58;97309.52;1728977;80;21180;-88
2021/03/25 13:24:18;;;;;;;14.58;4.20;;;;;;;9.57;22.29;97307.38;1739368;82;21160;-88
2021/03/25 13:30:40;;;;;;;8.00;3.30;;;;;;;9.11;22.41;97315.45;1753872;80;21187;-89
2021/03/25 13:34:09;;;;;;;7.97;4.10;;;;;;;9.04;22.89;97308.49;1746844;81;21208;-89
2021/03/25 13:49:56;;;;;;;9.80;4.25;;;;;;;9.12;22.78;97312.36;1745537;80;21259;-89
2021/03/25 13:53:30;;;;;;;5.17;2.55;;;;;;;9.08;22.92;97305.63;1703960;83;21156;-89
2021/03/25 14:06:41;;;;;;;7.10;3.70;;;;;;;8.98;23.03;97301.51;1778130;79;25044;-87
2021/03/25 14:10:21;;;;;;;6.67;4.10;;;;;;;8.90;23.53;97304.20;1676142;83;21267;-86
2021/03/25 14:36:45;;;;;;;6.42;3.30;;;;;;;8.67;24.72;97308.90;1539488;89;21276;-83
2021/03/25 14:53:45;;;;;;;6.25;3.20;;;;;;;8.53;24.67;97288.83;1447235;92;21430;-84
2021/03/25 15:09:10;;;;;;;8.40;4.20;;;;;;;7.62;24.75;97194.22;1594164;88;21307;-85
2021/03/25 15:24:32;;;;;;;6.67;3.65;;;;;;;7.89;25.19;97315.34;1500516;93;21251;-84
2021/03/25 15:31:21;;;;;;;5.80;3.70;;;;;;;7.84;24.73;97325.80;1554967;89;21181;-86
2021/03/25 15:51:29;;;;;;;5.62;3.77;;;;;;;7.37;25.36;97334.47;1594406;87;21313;-87
2021/03/25 15:54:39;;;;;;;6.58;3.95;;;;;;;7.29;25.05;97337.56;1594013;88;21313;-87
2021/03/25 16:08:53;;;;;;;6.80;3.58;;;;;;;6.86;25.76;97341.94;1802950;77;22317;-89
2021/03/25 16:11:44;;;;;;;4.97;3.30;;;;;;;6.76;25.72;97334.74;1776407;79;21139;-90
2021/03/25 16:15:35;;;;;;;8.48;3.85;;;;;;;6.68;25.33;97333.41;1771501;81;21136;-90
2021/03/25 16:18:53;;;;;;;5.87;2.98;;;;;;;6.61;25.78;97339.96;1738551;80;21295;-88
2021/03/25 16:22:26;;;;;;;6.53;3.87;;;;;;;6.53;25.95;97345.68;1718487;81;21345;-90
2021/03/25 16:35:26;;;;;;;7.72;4.20;;;;;;;6.20;26.37;97351.13;1795167;77;21160;-79
2021/03/25 16:37:53;;;;;;;;;;;;;;;6.13;26.37;97349.78;1793437;80;21144;-81
2021/03/25 16:40:23;;;;;;;7.47;4.28;;;;;;;6.03;26.46;97351.63;1793568;80;20241;-78
2021/03/25 16:42:52;;;;;;;6.78;3.65;;;;;;;5.97;26.72;97358.98;1746428;81;21167;-81
2021/03/25 16:45:25;;;;;;;9.85;4.87;;;;;;;5.88;26.68;97361.64;1789508;80;21738;-82
2021/03/25 16:47:53;;;;;;;10.40;3.02;;;;;;;5.83;26.83;97361.08;1786262;78;21135;-81
2021/03/25 16:50:23;;;;;;;6.67;3.55;;;;;;;5.74;26.89;97365.05;1790615;80;21181;-78
2021/03/25 16:52:50;;;;;;;7.42;3.35;;;;;;;5.66;26.99;97360.23;1791015;80;21508;-79
2021/03/25 16:55:19;;;;;;;7.20;3.77;;;;;;;5.57;27.17;97367.28;1790681;79;21194;-80
2021/03/25 16:57:47;;;;;;;5.75;3.72;;;;;;;5.49;27.40;97370.34;1793797;80;21152;-78
2021/03/25 17:00:27;;;;;;;9.08;3.58;;;;;;;5.42;27.36;97372.92;1763436;80;21331;-77
2021/03/25 17:03:00;;;;;;;6.17;3.42;;;;;;;5.34;27.67;97368.55;1762940;80;21181;-80
2021/03/25 17:05:30;;;;;;;6.22;3.47;;;;;;;5.25;27.71;97372.53;1764215;80;21638;-78
2021/03/25 17:07:59;;;;;;;8.40;4.30;;;;;;;5.18;27.82;97376.41;1762359;80;21678;-78
2021/03/25 17:10:31;;;;;;;12.58;4.62;;;;;;;5.09;28.10;97376.42;1764536;80;21179;-78
2021/03/25 17:12:58;;;;;;;11.22;4.17;;;;;;;5.02;28.27;97377.69;1760645;80;21633;-78
2021/03/25 17:15:30;;;;;;;6.95;4.05;;;;;;;4.94;28.37;97383.31;1775632;80;21139;-79
2021/03/25 17:18:01;;;;;;;11.25;4.20;;;;;;;4.86;29.06;97379.81;1766251;80;21526;-78
2021/03/25 17:20:34;;;;;;;9.95;4.75;;;;;;;4.78;28.98;97383.30;1766079;80;21185;-78
2021/03/25 17:23:06;;;;;;;9.18;5.67;;;;;;;4.71;28.97;97389.30;1760813;80;21628;-78
2021/03/25 17:25:36;;;;;;;12.53;6.53;;;;;;;4.64;29.29;97386.63;1769800;80;21137;-79
2021/03/25 17:28:05;;;;;;;16.35;7.37;;;;;;;4.57;29.38;97392.61;1745028;80;21179;-78
2021/03/25 17:30:36;;;;;;;16.90;6.92;;;;;;;4.48;29.59;97395.22;1757161;80;21510;-78
2021/03/25 17:33:07;;;;;;;13.50;6.87;;;;;;;4.41;30.01;97399.55;1767884;80;21143;-79
2021/03/25 17:35:38;;;;;;;18.73;6.83;;;;;;;4.27;30.25;97389.33;1764836;80;21630;-79
2021/03/25 17:38:07;;;;;;;15.60;7.08;;;;;;;4.26;30.33;97407.20;1765449;80;21201;-79
2021/03/25 17:40:36;;;;;;;17.00;8.10;;;;;;;4.18;30.50;97410.19;1745628;80;21214;-78
2021/03/25 17:43:07;;;;;;;14.90;8.53;;;;;;;4.12;30.79;97414.88;1784356;78;21613;-78
2021/03/25 17:45:40;;;;;;;18.75;8.25;;;;;;;4.05;31.13;97413.86;1763717;80;21203;-78
2021/03/25 17:48:11;;;;;;;15.38;7.25;;;;;;;3.97;31.27;97419.91;1757606;81;21136;-79
2021/03/25 17:50:39;;;;;;;15.58;7.85;;;;;;;3.89;31.74;97424.22;1761895;81;21745;-79
2021/03/25 17:53:07;;;;;;;26.12;8.73;;;;;;;3.84;31.84;97426.66;1761849;81;21161;-78
2021/03/25 17:55:35;;;;;;;25.92;7.80;;;;;;;3.79;31.87;97428.62;1761899;80;21184;-76
2021/03/25 17:58:04;;;;;;;16.85;7.80;;;;;;;3.74;31.95;97438.83;1761805;81;21185;-79
2021/03/25 18:00:36;;;;;;;23.95;8.23;;;;;;;3.69;32.07;97436.88;1761652;80;21624;-79
2021/03/25 18:03:09;;;;;;;24.92;9.25;;;;;;;3.66;32.31;97439.66;1777473;80;21187;-78
2021/03/25 18:05:44;;;;;;;24.87;8.25;;;;;;;3.62;32.46;97441.17;1762012;81;21143;-77
2021/03/25 18:08:12;;;;;;;20.08;7.97;;;;;;;3.57;32.36;97444.82;1761629;81;21190;-78